createdAt,value
2019-01-14T00:00:23.347Z,21.93
2019-01-14T00:02:50.271Z,23.27
2019-01-14T00:05:17.003Z,21.80
2019-01-14T00:07:43.803Z,24.27
2019-01-14T00:10:10.707Z,18.93
2019-01-14T00:12:37.418Z,18.17
2019-01-14T00:15:05.375Z,25.27
2019-01-14T00:17:32.172Z,22.23
2019-01-14T00:19:58.884Z,17.20
2019-01-14T00:22:25.583Z,31.60
2019-01-14T00:24:52.296Z,26.20
2019-01-14T00:27:19.004Z,24.80
2019-01-14T00:29:45.724Z,21.63
2019-01-14T00:32:12.424Z,22.90
2019-01-14T00:34:39.235Z,19.27
2019-01-14T00:37:05.948Z,22.00
2019-01-14T00:39:32.654Z,20.37
2019-01-14T00:41:59.459Z,23.53
2019-01-14T00:44:26.153Z,21.57
2019-01-14T00:46:52.867Z,19.30
2019-01-14T00:49:19.567Z,20.03
2019-01-14T00:51:46.279Z,27.23
2019-01-14T00:54:12.987Z,28.20
2019-01-14T00:56:39.719Z,20.37
2019-01-14T00:59:06.423Z,21.50
2019-01-14T01:01:33.131Z,20.87
2019-01-14T01:03:59.857Z,25.00
2019-01-14T01:06:26.873Z,23.50
2019-01-14T01:08:53.672Z,24.93
2019-01-14T01:11:20.474Z,21.13
2019-01-14T01:13:47.172Z,22.17
2019-01-14T01:16:13.989Z,20.07
2019-01-14T01:18:40.699Z,22.23
2019-01-14T01:21:07.511Z,22.80
2019-01-14T01:23:34.209Z,22.13
2019-01-14T01:26:00.915Z,21.03
2019-01-14T01:28:27.620Z,21.10
2019-01-14T01:30:54.316Z,22.43
2019-01-14T01:33:21.036Z,28.73
2019-01-14T01:35:47.740Z,23.73
2019-01-14T01:38:14.575Z,23.30
2019-01-14T01:40:41.284Z,21.53
2019-01-14T01:43:08.192Z,23.67
2019-01-14T01:45:34.979Z,21.13
2019-01-14T01:48:01.699Z,19.63
2019-01-14T01:50:28.414Z,22.03
2019-01-14T01:52:55.119Z,21.63
2019-01-14T01:55:21.816Z,22.37
2019-01-14T01:57:48.518Z,23.00
2019-01-14T02:00:18.071Z,21.33
2019-01-14T02:02:44.867Z,22.40
2019-01-14T02:05:12.831Z,18.23
2019-01-14T02:07:39.711Z,20.53
2019-01-14T02:10:09.307Z,22.93
2019-01-14T02:12:36.016Z,24.47
2019-01-14T02:15:04.115Z,24.53
2019-01-14T02:17:30.935Z,17.67
2019-01-14T02:19:57.830Z,26.93
2019-01-14T02:22:24.543Z,18.50
2019-01-14T02:24:51.255Z,21.07
2019-01-14T02:27:17.959Z,18.77
2019-01-14T02:29:44.684Z,21.20
2019-01-14T02:32:11.400Z,20.87
2019-01-14T02:34:38.130Z,19.83
2019-01-14T02:37:06.343Z,19.53
2019-01-14T02:39:33.051Z,20.53
2019-01-14T02:41:59.751Z,19.03
2019-01-14T02:44:26.460Z,21.87
2019-01-14T02:46:53.160Z,21.00
2019-01-14T02:49:19.885Z,22.33
2019-01-14T02:51:46.591Z,21.80
2019-01-14T02:54:13.322Z,22.13
2019-01-14T02:56:40.115Z,21.03
2019-01-14T02:59:06.816Z,21.70
2019-01-14T03:01:33.539Z,18.20
2019-01-14T03:04:00.243Z,16.50
2019-01-14T03:06:27.060Z,17.63
2019-01-14T03:08:53.767Z,22.63
2019-01-14T03:11:20.472Z,19.80
2019-01-14T03:13:47.170Z,17.60
2019-01-14T03:16:13.880Z,19.43
2019-01-14T03:18:40.587Z,15.83
2019-01-14T03:21:07.287Z,18.10
2019-01-14T03:23:33.997Z,18.80
2019-01-14T03:26:00.715Z,22.57
2019-01-14T03:28:27.506Z,18.90
2019-01-14T03:30:54.225Z,18.77
2019-01-14T03:33:20.936Z,15.30
2019-01-14T03:35:47.734Z,14.37
2019-01-14T03:38:14.450Z,19.97
2019-01-14T03:40:41.172Z,18.20
2019-01-14T03:43:07.880Z,17.47
2019-01-14T03:45:34.572Z,22.00
2019-01-14T03:48:01.354Z,27.87
2019-01-14T03:50:28.096Z,16.77
2019-01-14T03:52:54.807Z,19.27
2019-01-14T03:55:21.722Z,19.40
2019-01-14T03:57:50.703Z,24.57
2019-01-14T04:00:17.714Z,14.70
2019-01-14T04:02:44.547Z,15.70
2019-01-14T04:05:11.431Z,24.80
2019-01-14T04:07:38.129Z,13.07
2019-01-14T04:10:07.926Z,15.63
2019-01-14T04:12:34.719Z,14.20
2019-01-14T04:15:01.427Z,18.73
2019-01-14T04:17:28.127Z,22.70
2019-01-14T04:19:54.831Z,22.70
2019-01-14T04:22:21.659Z,20.53
2019-01-14T04:24:48.367Z,16.90
2019-01-14T04:27:15.063Z,17.53
2019-01-14T04:29:41.759Z,16.33
2019-01-14T04:32:08.491Z,16.97
2019-01-14T04:34:35.193Z,14.70
2019-01-14T04:37:01.902Z,17.40
2019-01-14T04:39:28.899Z,12.50
2019-01-14T04:41:55.616Z,13.07
2019-01-14T04:44:22.408Z,13.53
2019-01-14T04:46:49.103Z,8.63
2019-01-14T04:49:15.827Z,12.97
2019-01-14T04:51:42.540Z,8.53
2019-01-14T04:54:09.255Z,8.03
2019-01-14T04:56:35.959Z,10.23
2019-01-14T04:59:02.886Z,6.43
2019-01-14T05:01:29.587Z,9.63
2019-01-14T05:03:56.303Z,11.40
2019-01-14T05:06:23.019Z,12.77
2019-01-14T05:08:50.144Z,13.80
2019-01-14T05:11:16.835Z,11.87
2019-01-14T05:13:43.652Z,7.20
2019-01-14T05:16:10.371Z,9.50
2019-01-14T05:18:37.090Z,11.33
2019-01-14T05:21:04.018Z,7.57
2019-01-14T05:23:31.006Z,13.23
2019-01-14T05:25:57.811Z,6.40
2019-01-14T05:28:24.529Z,9.67
2019-01-14T05:30:51.231Z,10.17
2019-01-14T05:33:17.939Z,12.77
2019-01-14T05:35:44.639Z,5.53
2019-01-14T05:38:11.355Z,8.27
2019-01-14T05:40:38.075Z,12.10
2019-01-14T05:43:24.427Z,9.23
2019-01-14T05:45:51.123Z,11.27
2019-01-14T05:48:17.809Z,7.30
2019-01-14T05:50:44.509Z,9.33
2019-01-14T05:53:11.216Z,10.50
2019-01-14T05:55:38.013Z,8.47
2019-01-14T05:58:04.726Z,12.10
2019-01-14T06:00:39.572Z,9.53
2019-01-14T06:03:06.271Z,7.90
2019-01-14T06:05:33.075Z,9.90
2019-01-14T06:07:59.787Z,8.37
2019-01-14T06:10:26.483Z,8.77
2019-01-14T06:12:53.201Z,9.83
2019-01-14T06:15:20.100Z,11.07
2019-01-14T06:17:47.020Z,6.07
2019-01-14T06:20:14.715Z,9.83
2019-01-14T06:22:41.411Z,7.00
2019-01-14T06:25:09.459Z,9.77
2019-01-14T06:27:36.715Z,8.50
2019-01-14T06:30:09.198Z,7.17
2019-01-14T06:32:35.941Z,7.60
2019-01-14T06:35:03.435Z,7.20
2019-01-14T06:37:30.132Z,11.83
2019-01-14T06:39:56.939Z,13.70
2019-01-14T06:42:23.651Z,10.50
2019-01-14T06:44:50.353Z,12.63
2019-01-14T06:47:17.067Z,11.07
2019-01-14T06:49:43.778Z,12.13
2019-01-14T06:52:10.483Z,10.93
2019-01-14T06:54:37.187Z,11.37
2019-01-14T06:57:04.091Z,10.13
2019-01-14T06:59:30.775Z,7.13
2019-01-14T07:01:57.592Z,14.40
2019-01-14T07:04:24.283Z,14.77
2019-01-14T07:06:51.103Z,16.23
2019-01-14T07:09:17.810Z,16.17
2019-01-14T07:11:45.347Z,16.47
2019-01-14T07:14:12.051Z,11.53
2019-01-14T07:16:38.849Z,15.43
2019-01-14T07:19:05.548Z,17.27
2019-01-14T07:21:32.343Z,13.03
2019-01-14T07:23:59.155Z,18.07
2019-01-14T07:26:26.047Z,21.63
2019-01-14T07:28:52.752Z,12.20
2019-01-14T07:31:19.463Z,17.03
2019-01-14T07:33:46.443Z,18.10
2019-01-14T07:36:13.142Z,17.40
2019-01-14T07:38:39.930Z,11.73
2019-01-14T07:41:06.632Z,13.50
2019-01-14T07:43:33.332Z,15.50
2019-01-14T07:46:00.295Z,15.33
2019-01-14T07:48:27.011Z,15.30
2019-01-14T07:50:53.847Z,16.87
2019-01-14T07:53:20.583Z,14.33
2019-01-14T07:55:47.291Z,12.50
2019-01-14T07:58:14.009Z,15.07
2019-01-14T08:00:40.727Z,14.83
2019-01-14T08:03:07.431Z,13.83
2019-01-14T08:05:34.195Z,11.97
2019-01-14T08:08:01.011Z,18.40
2019-01-14T08:10:27.720Z,12.40
2019-01-14T08:12:54.427Z,14.93
2019-01-14T08:15:22.158Z,13.90
2019-01-14T08:17:49.219Z,11.83
2019-01-14T08:20:16.128Z,14.77
2019-01-14T08:22:42.943Z,14.97
2019-01-14T08:25:10.959Z,16.33
2019-01-14T08:27:37.783Z,12.80
2019-01-14T08:30:13.989Z,14.80
2019-01-14T08:32:40.808Z,11.33
2019-01-14T08:35:07.712Z,13.13
2019-01-14T08:37:34.520Z,15.33
2019-01-14T08:40:01.327Z,13.83
2019-01-14T08:42:28.040Z,9.37
2019-01-14T08:44:55.055Z,7.87
2019-01-14T08:47:21.991Z,13.50
2019-01-14T08:49:48.813Z,12.97
2019-01-14T08:52:15.719Z,9.23
2019-01-14T08:54:42.451Z,13.00
2019-01-14T08:57:09.267Z,10.00
2019-01-14T08:59:36.078Z,12.83
2019-01-14T09:02:02.983Z,12.30
2019-01-14T09:04:32.559Z,10.40
2019-01-14T09:06:58.491Z,10.43
2019-01-14T09:09:25.203Z,11.57
2019-01-14T09:11:51.915Z,14.07
2019-01-14T09:14:18.620Z,10.20
2019-01-14T09:16:45.323Z,10.67
2019-01-14T09:19:12.127Z,9.07
2019-01-14T09:21:38.839Z,11.67
2019-01-14T09:24:05.747Z,7.90
2019-01-14T09:26:32.458Z,12.13
2019-01-14T09:28:59.163Z,9.83
2019-01-14T09:31:26.585Z,13.57
2019-01-14T09:33:53.503Z,12.60
2019-01-14T09:36:20.219Z,10.47
2019-01-14T09:38:47.167Z,17.50
2019-01-14T09:41:13.922Z,11.80
2019-01-14T09:43:40.624Z,12.53
2019-01-14T09:46:08.703Z,13.97
2019-01-14T09:48:35.543Z,13.87
2019-01-14T09:51:02.363Z,12.93
2019-01-14T09:53:29.095Z,10.57
2019-01-14T09:55:55.798Z,15.13
2019-01-14T09:58:22.615Z,11.50
2019-01-14T10:00:49.435Z,9.00
2019-01-14T10:03:16.505Z,12.90
2019-01-14T10:05:43.315Z,10.70
2019-01-14T10:08:10.048Z,11.60
2019-01-14T10:10:36.767Z,11.20
2019-01-14T10:13:03.478Z,10.83
2019-01-14T10:15:30.290Z,12.10
2019-01-14T10:18:04.168Z,13.23
2019-01-14T10:20:30.891Z,11.33
2019-01-14T10:22:57.708Z,6.93
2019-01-14T10:25:24.442Z,8.40
2019-01-14T10:27:51.159Z,8.87
2019-01-14T10:30:21.386Z,8.47
2019-01-14T10:32:48.191Z,12.83
2019-01-14T10:35:15.111Z,11.93
2019-01-14T10:37:41.935Z,8.37
2019-01-14T10:40:10.431Z,11.13
2019-01-14T10:42:37.152Z,7.67
2019-01-14T10:45:07.171Z,4.37
2019-01-14T10:47:33.864Z,6.20
2019-01-14T10:50:00.571Z,6.83
2019-01-14T10:52:27.375Z,7.73
2019-01-14T10:54:54.087Z,9.57
2019-01-14T10:57:21.729Z,8.60
2019-01-14T10:59:48.927Z,5.93
2019-01-14T11:02:15.775Z,6.47
2019-01-14T11:04:42.639Z,4.67
2019-01-14T11:07:09.407Z,8.37
2019-01-14T11:09:36.164Z,7.07
2019-01-14T11:12:03.597Z,4.83
2019-01-14T11:14:30.392Z,3.47
2019-01-14T11:16:57.114Z,5.10
2019-01-14T11:19:23.828Z,3.97
2019-01-14T11:21:50.535Z,6.33
2019-01-14T11:24:17.248Z,6.67
2019-01-14T11:26:44.032Z,5.67
2019-01-14T11:29:10.744Z,9.90
2019-01-14T11:31:37.455Z,8.80
2019-01-14T11:34:04.363Z,5.60
2019-01-14T11:36:31.340Z,6.57
2019-01-14T11:39:04.775Z,4.73
2019-01-14T11:41:27.355Z,6.57
2019-01-14T11:43:54.271Z,8.30
2019-01-14T11:46:21.071Z,6.40
2019-01-14T11:48:47.771Z,8.40
2019-01-14T11:51:14.496Z,5.20
2019-01-14T11:53:41.295Z,6.33
2019-01-14T11:56:08.130Z,5.43
2019-01-14T11:58:34.847Z,4.80
2019-01-14T12:01:01.660Z,9.10
2019-01-14T12:03:28.471Z,7.70
2019-01-14T12:05:55.387Z,8.30
2019-01-14T12:08:22.192Z,6.03
2019-01-14T12:10:48.911Z,7.13
2019-01-14T12:13:15.631Z,5.50
2019-01-14T12:15:42.351Z,10.47
2019-01-14T12:18:09.069Z,6.57
2019-01-14T12:20:35.771Z,6.47
2019-01-14T12:23:03.076Z,10.17
2019-01-14T12:25:29.801Z,8.03
2019-01-14T12:27:56.597Z,7.57
2019-01-14T12:30:28.424Z,7.60
2019-01-14T12:32:55.183Z,8.73
2019-01-14T12:35:21.992Z,10.53
2019-01-14T12:37:48.716Z,6.57
2019-01-14T12:40:15.639Z,10.93
2019-01-14T12:42:42.351Z,9.97
2019-01-14T12:45:10.336Z,9.20
2019-01-14T12:47:37.044Z,7.43
2019-01-14T12:50:05.667Z,8.23
2019-01-14T12:52:32.684Z,9.13
2019-01-14T12:54:59.395Z,13.07
2019-01-14T12:57:26.117Z,7.10
2019-01-14T12:59:53.216Z,10.60
2019-01-14T13:02:20.023Z,8.23
2019-01-14T13:04:46.727Z,5.73
2019-01-14T13:07:13.475Z,2.73
2019-01-14T13:09:40.591Z,5.03
2019-01-14T13:12:07.503Z,5.50
2019-01-14T13:14:34.215Z,6.90
2019-01-14T13:17:00.929Z,5.03
2019-01-14T13:19:27.637Z,6.93
2019-01-14T13:21:54.351Z,5.53
2019-01-14T13:24:21.052Z,5.77
2019-01-14T13:26:47.776Z,5.53
2019-01-14T13:29:15.355Z,6.93
2019-01-14T13:31:42.199Z,8.63
2019-01-14T13:34:09.176Z,7.73
2019-01-14T13:36:35.883Z,7.73
2019-01-14T13:39:07.347Z,5.93
2019-01-14T13:41:34.059Z,10.80
2019-01-14T13:44:00.772Z,8.10
2019-01-14T13:46:27.479Z,5.73
2019-01-14T13:48:54.411Z,8.40
2019-01-14T13:51:21.227Z,10.17
2019-01-14T13:53:47.948Z,5.20
2019-01-14T13:56:14.655Z,8.13
2019-01-14T13:58:41.371Z,5.10
2019-01-14T14:01:08.084Z,7.13
2019-01-14T14:03:34.796Z,10.70
2019-01-14T14:06:01.619Z,7.10
2019-01-14T14:08:28.331Z,5.50
2019-01-14T14:10:55.043Z,6.53
2019-01-14T14:13:21.743Z,4.77
2019-01-14T14:15:48.448Z,8.77
2019-01-14T14:18:15.160Z,4.43
2019-01-14T14:20:41.863Z,7.00
2019-01-14T14:23:08.572Z,9.30
2019-01-14T14:25:35.280Z,5.87
2019-01-14T14:28:01.997Z,8.90
2019-01-14T14:30:36.652Z,7.70
2019-01-14T14:33:03.564Z,7.60
2019-01-14T14:35:30.280Z,8.83
2019-01-14T14:38:01.336Z,6.43
2019-01-14T14:40:26.202Z,7.40
2019-01-14T14:42:53.241Z,4.30
2019-01-14T14:45:20.362Z,5.27
2019-01-14T14:47:47.315Z,7.03
2019-01-14T14:50:15.369Z,8.60
2019-01-14T14:52:42.362Z,6.60
2019-01-14T14:55:09.599Z,4.73
2019-01-14T14:57:36.290Z,4.53
2019-01-14T15:00:06.744Z,7.70
2019-01-14T15:02:33.496Z,6.23
2019-01-14T15:05:00.236Z,6.90
2019-01-14T15:07:26.927Z,4.57
2019-01-14T15:09:55.961Z,12.70
2019-01-14T15:12:22.275Z,4.47
2019-01-14T15:14:49.014Z,6.47
2019-01-14T15:17:15.856Z,12.40
2019-01-14T15:19:42.560Z,7.50
2019-01-14T15:22:09.275Z,5.30
2019-01-14T15:24:36.355Z,7.10
2019-01-14T15:27:03.172Z,5.70
2019-01-14T15:29:29.883Z,5.50
2019-01-14T15:31:56.611Z,6.85
2019-01-14T15:34:23.330Z,5.45
2019-01-14T15:36:50.432Z,6.23
2019-01-14T15:39:17.289Z,7.53
2019-01-14T15:41:43.996Z,8.55
2019-01-14T15:44:10.786Z,8.28
2019-01-14T15:46:37.796Z,5.23
2019-01-14T15:49:04.503Z,10.60
2019-01-14T15:51:31.206Z,3.77
2019-01-14T15:53:57.917Z,6.70
2019-01-14T15:56:24.665Z,4.97
2019-01-14T15:58:51.436Z,8.80
2019-01-14T16:01:18.148Z,6.47
2019-01-14T16:03:44.856Z,7.27
2019-01-14T16:06:11.570Z,6.67
2019-01-14T16:08:38.319Z,9.50
2019-01-14T16:11:05.201Z,7.80
2019-01-14T16:13:31.891Z,11.33
2019-01-14T16:15:58.631Z,6.87
2019-01-14T16:18:25.500Z,11.33
2019-01-14T16:20:52.211Z,6.90
2019-01-14T16:23:18.941Z,3.93
2019-01-14T16:25:45.656Z,10.03
2019-01-14T16:28:12.407Z,10.72
2019-01-14T16:30:39.131Z,6.45
2019-01-14T16:33:05.903Z,5.60
2019-01-14T16:35:32.603Z,5.70
2019-01-14T16:37:59.313Z,7.10
2019-01-14T16:40:26.032Z,7.37
2019-01-14T16:42:52.748Z,6.92
2019-01-14T16:45:22.754Z,6.95
2019-01-14T16:47:49.584Z,7.28
2019-01-14T16:50:16.918Z,7.70
2019-01-14T16:52:43.824Z,5.70
2019-01-14T16:55:12.732Z,8.38
2019-01-14T16:57:39.451Z,8.38
2019-01-14T17:00:13.845Z,5.20
2019-01-14T17:02:40.555Z,5.60
2019-01-14T17:05:07.975Z,5.28
2019-01-14T17:07:34.687Z,7.58
2019-01-14T17:10:01.398Z,9.93
2019-01-14T17:12:28.099Z,8.40
2019-01-14T17:14:54.811Z,7.05
2019-01-14T17:17:21.623Z,9.05
2019-01-14T17:19:48.335Z,4.95
2019-01-14T17:22:15.135Z,5.40
2019-01-14T17:24:41.855Z,6.15
2019-01-14T17:27:08.568Z,6.87
2019-01-14T17:29:35.295Z,5.05
2019-01-14T17:32:02.011Z,5.17
2019-01-14T17:34:28.830Z,6.55
2019-01-14T17:36:55.750Z,9.80
2019-01-14T17:39:22.567Z,9.35
2019-01-14T17:41:50.368Z,9.23
2019-01-14T17:44:17.079Z,8.80
2019-01-14T17:46:43.879Z,4.92
2019-01-14T17:49:10.591Z,9.03
2019-01-14T17:51:37.279Z,8.33
2019-01-14T17:54:04.088Z,9.53
2019-01-14T17:56:30.815Z,6.72
2019-01-14T17:58:57.531Z,9.88
2019-01-14T18:01:24.244Z,9.25
2019-01-14T18:03:50.959Z,6.75
2019-01-14T18:06:17.676Z,9.15
2019-01-14T18:08:44.399Z,6.67
2019-01-14T18:11:11.107Z,11.85
2019-01-14T18:13:37.826Z,7.58
2019-01-14T18:16:04.535Z,7.05
2019-01-14T18:18:31.259Z,6.85
2019-01-14T18:20:57.971Z,10.35
2019-01-14T18:23:24.691Z,7.70
2019-01-14T18:25:51.543Z,9.28
2019-01-14T18:28:18.239Z,7.80
2019-01-14T18:30:45.055Z,8.18
2019-01-14T18:33:11.769Z,6.65
2019-01-14T18:35:38.599Z,6.55
2019-01-14T18:38:05.413Z,8.98
2019-01-14T18:40:34.104Z,7.08
2019-01-14T18:43:00.764Z,9.75
2019-01-14T18:45:27.475Z,9.73
2019-01-14T18:47:54.283Z,11.83
2019-01-14T18:50:21.543Z,11.22
2019-01-14T18:52:48.359Z,9.50
2019-01-14T18:55:15.076Z,8.43
2019-01-14T18:57:41.884Z,10.18
2019-01-14T19:00:12.144Z,16.65
2019-01-14T19:02:38.861Z,13.48
2019-01-14T19:05:05.864Z,9.75
2019-01-14T19:07:32.671Z,12.23
2019-01-14T19:09:59.668Z,8.50
2019-01-14T19:12:26.395Z,13.30
2019-01-14T19:14:53.115Z,10.00
2019-01-14T19:17:19.820Z,10.80
2019-01-14T19:19:46.543Z,9.83
2019-01-14T19:22:13.245Z,11.73
2019-01-14T19:24:39.966Z,10.15
2019-01-14T19:27:06.671Z,8.05
2019-01-14T19:29:33.380Z,10.88
2019-01-14T19:32:00.083Z,9.85
2019-01-14T19:34:26.796Z,8.45
2019-01-14T19:36:53.516Z,7.28
2019-01-14T19:39:20.571Z,9.95
2019-01-14T19:41:47.379Z,9.30
2019-01-14T19:44:14.099Z,10.98
2019-01-14T19:46:40.811Z,6.50
2019-01-14T19:49:07.515Z,9.00
2019-01-14T19:51:34.236Z,7.45
2019-01-14T19:54:00.974Z,8.45
2019-01-14T19:56:27.691Z,8.68
2019-01-14T19:58:54.403Z,6.45
2019-01-14T20:01:21.115Z,8.20
2019-01-14T20:03:47.843Z,8.60
2019-01-14T20:06:15.027Z,8.53
2019-01-14T20:08:41.751Z,8.03
2019-01-14T20:11:09.265Z,6.00
2019-01-14T20:13:36.383Z,8.03
2019-01-14T20:16:03.424Z,9.73
2019-01-14T20:18:30.175Z,8.55
2019-01-14T20:20:56.975Z,10.80
2019-01-14T20:23:23.692Z,8.00
2019-01-14T20:25:50.499Z,11.05
2019-01-14T20:28:17.303Z,11.95
2019-01-14T20:30:44.263Z,12.20
2019-01-14T20:33:10.975Z,14.40
2019-01-14T20:35:37.695Z,11.03
2019-01-14T20:38:04.507Z,10.00
2019-01-14T20:40:31.237Z,12.53
2019-01-14T20:42:57.952Z,13.10
2019-01-14T20:45:24.754Z,12.95
2019-01-14T20:47:51.479Z,13.40
2019-01-14T20:50:19.498Z,19.57
2019-01-14T20:52:46.456Z,16.57
2019-01-14T20:55:13.182Z,8.58
2019-01-14T20:57:39.997Z,11.75
2019-01-14T21:00:11.743Z,12.55
2019-01-14T21:02:38.555Z,9.65
2019-01-14T21:05:06.347Z,12.47
2019-01-14T21:07:33.063Z,10.32
2019-01-14T21:09:59.775Z,10.55
2019-01-14T21:12:26.492Z,10.95
2019-01-14T21:14:53.191Z,9.33
2019-01-14T21:17:20.977Z,10.85
2019-01-14T21:19:47.938Z,11.63
2019-01-14T21:22:14.651Z,9.00
2019-01-14T21:24:41.363Z,11.28
2019-01-14T21:27:08.083Z,10.80
2019-01-14T21:29:34.808Z,11.12
2019-01-14T21:32:01.639Z,9.78
2019-01-14T21:34:29.391Z,11.75
2019-01-14T21:36:56.099Z,13.60
2019-01-14T21:39:22.919Z,9.00
2019-01-14T21:41:49.639Z,9.70
2019-01-14T21:44:16.353Z,9.08
2019-01-14T21:46:43.094Z,9.68
2019-01-14T21:49:09.804Z,9.00
2019-01-14T21:51:36.603Z,9.13
2019-01-14T21:54:03.820Z,11.83
2019-01-14T21:56:30.524Z,9.93
2019-01-14T21:58:57.781Z,9.40
2019-01-14T22:01:24.479Z,12.05
2019-01-14T22:03:51.180Z,10.23
2019-01-14T22:06:18.300Z,9.88
2019-01-14T22:08:45.007Z,9.45
2019-01-14T22:11:11.718Z,8.05
2019-01-14T22:13:38.427Z,11.35
2019-01-14T22:16:05.234Z,8.63
2019-01-14T22:18:31.955Z,8.43
2019-01-14T22:20:58.779Z,8.10
2019-01-14T22:23:25.503Z,7.30
2019-01-14T22:25:52.306Z,10.63
2019-01-14T22:28:19.013Z,9.43
2019-01-14T22:30:45.720Z,9.63
2019-01-14T22:33:12.427Z,6.60
2019-01-14T22:35:39.139Z,8.63
2019-01-14T22:38:05.843Z,8.00
2019-01-14T22:40:32.560Z,8.75
2019-01-14T22:42:59.364Z,9.45
2019-01-14T22:45:26.183Z,11.30
2019-01-14T22:47:52.979Z,12.70
2019-01-14T22:50:19.797Z,7.17
2019-01-14T22:52:46.699Z,9.93
2019-01-14T22:55:13.625Z,7.53
2019-01-14T22:57:40.431Z,11.22
2019-01-14T23:00:27.027Z,14.13
2019-01-14T23:02:53.807Z,10.60
2019-01-14T23:05:20.506Z,10.95
2019-01-14T23:07:47.232Z,11.70
2019-01-14T23:10:14.139Z,9.83
2019-01-14T23:12:40.846Z,8.45
2019-01-14T23:15:07.763Z,8.78
2019-01-14T23:17:34.567Z,9.40
2019-01-14T23:20:01.815Z,13.55
2019-01-14T23:22:28.519Z,11.45
2019-01-14T23:24:55.240Z,12.25
2019-01-14T23:27:21.957Z,9.38
2019-01-14T23:29:48.680Z,10.18
2019-01-14T23:32:15.387Z,15.35
2019-01-14T23:34:42.091Z,11.43
2019-01-14T23:37:08.805Z,10.88
2019-01-14T23:39:35.519Z,10.72
2019-01-14T23:42:02.536Z,11.60
2019-01-14T23:44:29.331Z,12.18
2019-01-14T23:46:56.035Z,13.08
2019-01-14T23:49:22.750Z,13.43
2019-01-14T23:51:49.454Z,12.37
2019-01-14T23:54:16.173Z,13.28
2019-01-14T23:56:42.871Z,11.65
2019-01-14T23:59:09.575Z,10.28
